Latest Weather Observations for Hobart Airport

IDT60801

Issued at 10:31 pm EDT Sunday 1 February 2015 (issued every 30 minutes, with the page automatically refreshed every 10 minutes)

About weather observations | Map of weather stations | Latest weather observations for TAS | Other Formats
Station Details ID: 094008 Name: HOBART AIRPORT Lat: -42.83 Lon: 147.50 Height: 4.0 m
Data from the previous 72 hours. | See also: Recent months at Hobart Airport
Date/Time
EDT
Temp
°C
App
Temp
°C
Dew
Point
Rel
Hum
%
Delta-T
°C
Wind Press
QNH
hPa
Press
MSL
hPa
Rain
since 9 am
mm
Dir
 
Spd
km/h
Gust
km/h
Spd
kts
Gust
kts
01/10:00pm 12.9 10.0 8.3 73 2.3 SW 13 19 7 10 1018.6 1018.6 0.2
01/09:30pm 12.5 9.5 9.1 80 1.7 SSW 15 22 8 12 1018.4 1018.4 0.2
01/09:00pm 13.0 9.1 8.8 75 2.1 SW 19 30 10 16 1018.1 1018.1 0.2
01/08:30pm 13.4 9.4 8.2 71 2.6 SW 19 26 10 14 1017.7 1017.7 0.2
01/08:00pm 13.7 9.4 7.8 67 2.9 SSW 20 28 11 15 1017.5 1017.5 0.2
01/07:30pm 13.8 9.5 7.7 66 3.0 SSW 20 28 11 15 1017.2 1017.2 0.2
01/07:00pm 13.8 9.7 7.7 66 3.0 SSW 19 26 10 14 1016.9 1016.9 0.2
01/06:30pm 14.0 9.0 6.5 60 3.6 SSW 22 32 12 17 1016.6 1016.6 0.2
01/05:30pm 14.1 8.2 7.4 64 3.3 SSW 28 37 15 20 1016.3 1016.3 0.2
01/05:00pm 14.5 9.2 6.7 59 3.8 SSW 24 35 13 19 1016.2 1016.2 0.2
01/04:30pm 14.4 8.7 8.2 66 3.1 S 28 33 15 18 1016.2 1016.2 0.2
01/04:00pm 14.5 8.7 8.1 65 3.2 S 28 37 15 20 1016.1 1016.1 0.2
01/03:30pm 14.3 8.5 8.1 66 3.1 SSW 28 33 15 18 1016.0 1016.0 0.2
01/03:00pm 14.1 9.2 8.3 68 2.9 SSW 24 33 13 18 1015.9 1015.9 0.2
01/02:30pm 14.2 9.1 9.1 71 2.6 SSW 26 41 14 22 1015.9 1015.9 0.2
01/02:00pm 14.0 7.9 8.2 68 2.9 SW 30 39 16 21 1015.7 1015.7 0.2
01/01:30pm 13.8 8.9 8.4 70 2.7 SSW 24 33 13 18 1015.7 1015.7 0.2
01/01:00pm 14.0 8.6 8.2 68 2.9 SSW 26 37 14 20 1015.7 1015.7 0.2
01/12:30pm 13.7 8.4 8.3 70 2.7 SSW 26 33 14 18 1015.7 1015.7 0.0
01/12:00pm 13.7 8.5 8.7 72 2.5 SSW 26 37 14 20 1015.8 1015.8 0.0
01/11:30am 14.2 9.4 8.9 70 2.7 SSW 24 32 13 17 1015.5 1015.5 0.0
01/11:00am 13.8 9.4 9.1 73 2.4 SW 22 32 12 17 1015.4 1015.4 0.0
01/10:30am 13.4 9.4 8.4 72 2.5 SSW 19 28 10 15 1015.3 1015.2 0.0
01/10:00am 12.8 8.4 8.8 76 2.0 SW 22 30 12 16 1015.2 1015.1 0.0
01/09:30am 13.0 8.2 9.0 77 2.0 SSW 24 32 13 17 1014.9 1014.8 0.0
01/08:30am 12.5 8.5 8.9 79 1.8 SSW 20 28 11 15 1014.3 1014.2 3.0
01/08:00am 12.3 8.5 9.1 81 1.6 SSW 19 28 10 15 1013.9 1013.8 3.0
01/07:30am 12.0 7.7 9.4 84 1.3 SSW 22 33 12 18 1013.7 1013.6 3.0
01/07:00am 11.8 8.1 9.6 86 1.1 SW 19 26 10 14 1013.3 1013.2 3.0
01/06:30am 11.7 7.5 9.7 87 1.0 SW 22 33 12 18 1013.1 1013.0 3.0
01/05:30am 11.8 8.2 10.0 89 0.9 SSW 19 26 10 14 1012.7 1012.6 2.8
01/05:00am 11.9 8.4 10.1 89 0.9 SSW 19 28 10 15 1012.5 1012.4 2.8
01/04:30am 11.9 8.3 9.9 87 1.0 SW 19 26 10 14 1012.6 1012.5 2.4
01/04:18am 12.0 8.8 10.0 87 1.0 SSW 17 26 9 14 1012.6 1012.5 2.4
01/04:00am 12.0 8.4 10.0 87 1.0 SW 19 26 10 14 1012.6 1012.5 2.4
01/03:30am 12.1 8.5 10.4 89 0.9 SW 20 30 11 16 1012.7 1012.6 2.4
01/03:00am 12.3 7.6 10.6 89 0.9 SSW 26 35 14 19 1012.6 1012.5 2.2
01/02:30am 12.4 8.8 10.5 88 1.0 SSW 20 30 11 16 1012.4 1012.3 2.2
01/02:24am 12.4 8.4 10.5 88 1.0 SSW 22 32 12 17 1012.4 1012.3 2.2
01/02:00am 12.5 8.5 10.4 87 1.1 SSW 22 35 12 19 1012.7 1012.6 2.2
01/01:56am 12.4 8.0 10.3 87 1.1 SSW 24 35 13 19 1012.7 1012.6 2.2
01/01:30am 12.5 7.8 10.6 88 1.0 SSW 26 33 14 18 1012.8 1012.7 2.2
01/01:00am 12.6 9.0 10.5 87 1.1 SSW 20 28 11 15 1013.0 1012.9 2.2
01/12:41am 13.1 9.9 10.0 81 1.6 SSW 17 28 9 15 1013.0 1012.9 2.2
01/12:30am 13.1 10.0 10.2 82 1.5 SSW 17 26 9 14 1013.0 1012.9 2.2
 
Date/Time
EDT
Temp
°C
App
Temp
°C
Dew
Point
Rel
Hum
%
Delta-T
°C
Wind Press
QNH
hPa
Press
MSL
hPa
Rain
since 9 am
mm
Dir
 
Spd
km/h
Gust
km/h
Spd
kts
Gust
kts
31/11:51pm 13.3 10.1 10.0 80 1.7 S 17 28 9 15 1013.1 1013.0 2.2
31/11:30pm 13.3 9.7 10.0 80 1.7 SSW 19 26 10 14 1013.1 1013.0 2.2
31/11:00pm 13.5 8.9 9.8 78 1.9 SSW 24 32 13 17 1013.2 1013.1 2.2
31/10:30pm 13.6 9.1 9.9 78 1.9 SSW 24 33 13 18 1013.3 1013.2 2.2
31/10:00pm 13.7 8.5 10.2 79 1.8 S 28 37 15 20 1013.2 1013.1 2.2
31/09:30pm 13.4 9.9 10.3 81 1.6 SSW 19 24 10 13 1012.9 1012.8 2.2
31/09:00pm 13.4 9.4 10.5 82 1.5 SSW 22 33 12 18 1012.7 1012.6 2.2
31/08:30pm 13.9 9.3 10.9 82 1.6 S 26 39 14 21 1012.4 1012.3 2.2
31/08:00pm 14.1 9.0 10.7 80 1.8 S 28 37 15 20 1012.2 1012.1 2.2
31/07:30pm 14.3 9.3 11.1 81 1.7 S 28 33 15 18 1012.0 1011.9 2.2
31/07:00pm 14.4 10.7 11.6 83 1.5 S 22 28 12 15 1011.8 1011.7 2.0
31/06:50pm 14.4 10.3 11.6 83 1.5 S 24 32 13 17 1011.7 1011.6 2.0
31/06:30pm 14.3 10.3 11.7 84 1.4 SSW 24 33 13 18 1011.6 1011.5 2.0
31/06:00pm 13.9 9.1 11.7 86 1.2 SSW 28 39 15 21 1011.6 1011.5 2.0
31/05:30pm 14.1 10.3 12.3 89 1.0 SSW 24 32 13 17 1011.4 1011.3 2.0
31/05:00pm 14.2 10.8 12.6 90 0.9 SSW 22 30 12 16 1011.3 1011.2 2.0
31/04:30pm 14.3 10.6 12.8 91 0.8 SSW 24 33 13 18 1011.2 1011.1 2.0
31/04:00pm 14.2 10.6 12.9 92 0.7 SSW 24 33 13 18 1011.1 1011.0 2.0
31/03:30pm 14.0 10.7 12.9 93 0.6 SSW 22 32 12 17 1011.1 1011.0 1.6
31/03:00pm 14.3 10.3 13.0 92 0.7 SSW 26 37 14 20 1011.0 1010.9 1.6
31/02:52pm 14.1 9.5 13.4 96 0.4 SSW 30 39 16 21 1011.0 1010.9 1.6
31/02:30pm 14.3 10.2 12.7 90 0.9 SSW 26 39 14 21 1011.0 1010.9 1.6
31/02:00pm 14.3 9.5 13.0 92 0.7 SSW 30 48 16 26 1011.2 1011.1 1.6
31/01:56pm 14.1 9.7 12.8 92 0.7 SSW 28 48 15 26 1011.2 1011.1 1.6
31/01:30pm 13.9 10.2 12.6 92 0.7 SSW 24 35 13 19 1011.3 1011.2 1.4
31/01:00pm 14.0 9.1 12.5 91 0.8 SSW 30 37 16 20 1011.4 1011.3 1.2
31/12:30pm 14.0 8.8 12.7 92 0.7 SSW 32 44 17 24 1011.3 1011.2 1.2
31/12:00pm 13.9 9.5 12.8 93 0.6 SSW 28 41 15 22 1011.4 1011.3 0.8
31/11:30am 13.8 8.9 12.5 92 0.7 SSW 30 41 16 22 1011.6 1011.5 0.6
31/11:00am 14.0 8.8 12.7 92 0.7 SSW 32 50 17 27 1011.6 1011.5 0.6
31/10:56am 13.9 8.6 12.6 92 0.7 SSW 32 50 17 27 1011.7 1011.6 0.6
31/10:30am 13.7 9.6 12.6 93 0.6 SSW 26 41 14 22 1011.8 1011.7 0.4
31/10:00am 13.7 9.1 12.4 92 0.7 SSW 28 37 15 20 1011.9 1011.8 0.4
31/09:30am 13.7 8.8 12.6 93 0.6 S 30 41 16 22 1011.9 1011.8 0.0
31/09:00am 13.5 8.2 12.6 94 0.5 S 32 43 17 23 1011.9 1011.8 7.2
31/08:59am 13.5 8.2 12.6 94 0.5 S 32 43 17 23 1011.9 1011.8 7.2
31/08:30am 13.5 9.0 12.6 94 0.5 S 28 43 15 23 1011.8 1011.7 7.0
31/08:00am 13.5 9.0 12.6 94 0.5 S 28 41 15 22 1011.7 1011.6 6.0
31/07:30am 13.4 9.2 12.5 94 0.5 S 26 39 14 21 1011.7 1011.6 5.0
31/07:00am 13.3 8.0 12.4 94 0.5 S 32 41 17 22 1011.7 1011.6 4.4
31/06:47am 13.2 7.8 12.3 94 0.5 S 32 44 17 24 1011.7 1011.6 4.2
31/06:30am 13.2 9.0 12.5 95 0.4 SSW 26 35 14 19 1011.7 1011.6 4.0
31/06:00am 13.2 7.9 12.5 95 0.4 S 32 48 17 26 1011.6 1011.5 3.8
31/05:30am 13.3 7.9 12.2 93 0.6 SSW 32 43 17 23 1011.4 1011.3 3.0
31/05:15am 13.3 8.3 12.2 93 0.6 SSW 30 43 16 23 1011.3 1011.2 2.6
31/05:00am 13.3 8.6 12.0 92 0.7 SSW 28 39 15 21 1011.3 1011.2 2.6
31/04:54am 13.3 9.0 12.0 92 0.7 SSW 26 39 14 21 1011.4 1011.3 2.6
31/04:30am 13.1 8.5 12.2 94 0.5 SSW 28 39 15 21 1011.5 1011.4 2.4
31/04:00am 13.0 8.7 12.1 94 0.5 SSW 26 33 14 18 1011.8 1011.7 2.2
31/03:30am 12.8 8.1 11.9 94 0.5 SSW 28 37 15 20 1012.0 1011.9 1.6
31/03:00am 12.9 8.9 11.8 93 0.6 SSW 24 33 13 18 1012.2 1012.1 1.4
31/02:30am 12.8 8.5 11.9 94 0.5 SSW 26 39 14 21 1012.4 1012.3 1.2
31/02:00am 12.7 8.3 11.8 94 0.5 SSW 26 37 14 20 1012.8 1012.7 1.2
31/01:30am 12.6 8.9 11.5 93 0.6 SSW 22 35 12 19 1013.0 1012.9 0.8
31/01:00am 12.5 7.6 11.2 92 0.7 SSW 28 39 15 21 1013.2 1013.1 0.8
31/12:30am 12.1 7.1 11.0 93 0.6 SSW 28 37 15 20 1013.4 1013.3 0.8
31/12:00am 12.2 7.9 10.9 92 0.7 SSW 24 33 13 18 1013.9 1013.8 0.8
 
Date/Time
EDT
Temp
°C
App
Temp
°C
Dew
Point
Rel
Hum
%
Delta-T
°C
Wind Press
QNH
hPa
Press
MSL
hPa
Rain
since 9 am
mm
Dir
 
Spd
km/h
Gust
km/h
Spd
kts
Gust
kts
30/11:30pm 12.4 8.5 10.7 89 0.9 SSW 22 30 12 16 1014.1 1014.0 0.6
30/11:19pm 12.4 7.3 10.7 89 0.9 SSW 28 41 15 22 1014.3 1014.2 0.6
30/11:00pm 12.5 6.6 10.6 88 1.0 SSW 32 41 17 22 1014.4 1014.3 0.6
30/10:53pm 12.9 7.7 10.2 84 1.4 S 28 39 15 21 1014.5 1014.4 0.4
30/10:30pm 13.4 6.3 9.5 77 2.0 S 37 48 20 26 1014.6 1014.5 0.4
30/10:00pm 13.9 7.6 9.0 72 2.5 S 32 41 17 22 1014.7 1014.6 0.4
30/09:30pm 14.0 7.4 8.6 70 2.7 SSW 33 52 18 28 1015.0 1014.9 0.4
30/09:20pm 14.2 7.6 8.6 69 2.8 S 33 54 18 29 1015.0 1014.9 0.4
30/09:00pm 14.2 7.5 8.0 66 3.1 S 33 48 18 26 1015.0 1014.9 0.4
30/08:30pm 14.3 7.8 8.3 67 3.0 S 32 48 17 26 1015.0 1014.9 0.4
30/08:00pm 14.3 7.8 8.8 69 2.8 S 33 48 18 26 1015.2 1015.1 0.4
30/07:30pm 14.5 8.6 9.2 70 2.7 S 30 41 16 22 1015.2 1015.1 0.4
30/07:00pm 14.9 8.3 8.6 66 3.2 S 33 46 18 25 1015.2 1015.1 0.4
30/06:30pm 14.6 8.3 9.1 69 2.8 SSW 32 43 17 23 1015.4 1015.3 0.4
30/06:00pm 14.2 8.6 10.2 77 2.1 S 30 46 16 25 1015.6 1015.6 0.4
30/05:30pm 15.3 9.6 9.7 69 2.9 S 30 39 16 21 1015.9 1015.9 0.4
30/05:00pm 15.1 9.0 10.3 73 2.5 S 33 41 18 22 1016.2 1016.2 0.4
30/04:30pm 15.6 9.5 9.6 67 3.1 S 32 46 17 25 1016.4 1016.4 0.4
30/04:00pm 14.3 8.3 10.7 79 1.9 SSE 33 46 18 25 1016.6 1016.6 0.4
30/03:44pm 15.4 8.9 8.9 65 3.3 S 33 54 18 29 1016.6 1016.6 0.4
30/03:30pm 15.4 8.8 8.5 63 3.5 S 33 48 18 26 1016.7 1016.7 0.4
30/03:00pm 14.9 8.6 8.8 67 3.1 S 32 41 17 22 1016.9 1016.9 0.4
30/02:30pm 15.5 9.1 9.3 66 3.2 SSE 33 46 18 25 1017.2 1017.2 0.4
30/02:00pm 15.8 8.4 8.3 61 3.8 SSE 37 48 20 26 1017.3 1017.3 0.4
30/01:30pm 15.3 8.6 9.7 69 2.9 S 35 44 19 24 1017.4 1017.4 0.4
30/01:03pm 15.4 8.8 10.0 70 2.8 SSE 35 56 19 30 1017.7 1017.7 0.4
30/01:00pm 15.5 8.7 9.3 66 3.2 SSE 35 41 19 22 1017.5 1017.5 0.4
30/12:42pm 16.3 9.8 8.9 61 3.8 S 33 52 18 28 1017.6 1017.6 0.2
30/12:30pm 16.5 8.8 8.5 59 4.1 S 39 50 21 27 1017.8 1017.8 0.2
30/12:00pm 15.1 7.8 11.4 78 2.0 S 41 54 22 29 1018.1 1018.1 0.2
30/11:33am 16.1 8.9 9.3 64 3.5 S 37 56 20 30 1018.2 1018.2 0.0
30/11:30am 15.2 8.5 9.6 69 2.9 SSE 35 50 19 27 1018.3 1018.3 0.0
30/11:00am 13.8 6.4 11.2 84 1.4 S 41 56 22 30 1018.7 1018.7 0.0
30/10:30am 14.8 8.6 10.2 74 2.4 S 33 48 18 26 1019.0 1019.0 0.0
30/10:00am 13.5 6.8 9.8 78 1.9 SSE 35 50 19 27 1019.3 1019.3 0.0
30/09:30am 14.2 8.3 9.1 71 2.6 SSE 30 39 16 21 1019.3 1019.3 0.0
30/09:00am 13.0 7.2 10.9 87 1.1 SSE 32 43 17 23 1019.4 1019.4 0.4
30/08:45am 12.6 6.8 10.9 89 0.9 S 32 41 17 22 1019.6 1019.6 0.4
30/08:42am 12.5 6.7 10.8 89 0.9 SSE 32 41 17 22 1019.6 1019.6 0.4
30/08:40am 12.5 6.8 11.0 90 0.8 SSE 32 41 17 22 1019.6 1019.6 0.4
30/08:30am 12.4 6.6 10.9 90 0.8 S 32 43 17 23 1019.6 1019.6 0.4
30/08:18am 12.5 6.2 11.0 90 0.8 SSE 35 54 19 29 1019.5 1019.5 0.2
30/08:12am 13.2 7.2 10.7 85 1.3 SSE 33 50 18 27 1019.5 1019.5 0.0
30/08:00am 12.9 7.8 10.6 86 1.2 SSE 28 46 15 25 1019.3 1019.3 0.0
30/07:58am 13.4 8.5 9.9 79 1.8 SSE 26 35 14 19 1019.3 1019.3 0.0
30/07:30am 13.7 7.3 9.2 74 2.3 SSE 33 43 18 23 1019.3 1019.3 0.0
30/07:00am 13.8 8.3 9.1 73 2.4 SSE 28 35 15 19 1019.2 1019.2 0.0
30/06:30am 13.7 7.1 8.7 72 2.5 SSE 33 43 18 23 1019.3 1019.3 0.0
30/06:00am 13.3 6.6 9.6 78 1.9 SSE 35 46 19 25 1019.5 1019.5 0.0
30/05:30am 13.5 7.3 9.4 76 2.1 SSE 32 44 17 24 1019.5 1019.5 0.0
30/05:00am 13.2 7.3 9.2 77 2.0 SSE 30 39 16 21 1019.6 1019.6 0.0
30/04:30am 13.4 7.4 8.8 74 2.3 SSE 30 43 16 23 1019.8 1019.8 0.0
30/04:00am 13.4 7.1 8.8 74 2.3 S 32 41 17 22 1020.1 1020.1 0.0
30/03:36am 13.3 8.3 9.4 77 2.0 SSE 26 35 14 19 1020.4 1020.4 0.0
30/03:30am 13.1 7.9 8.9 75 2.1 SSE 26 35 14 19 1020.4 1020.4 0.0
30/03:00am 13.8 7.9 7.5 66 3.1 SSE 28 37 15 20 1020.6 1020.6 0.0
30/02:30am 13.6 7.3 5.7 59 3.7 SSE 28 39 15 21 1021.2 1021.2 0.0
30/02:00am 13.4 7.4 5.5 59 3.7 SSE 26 33 14 18 1021.4 1021.4 0.0
30/01:30am 13.4 6.2 5.2 57 3.8 SSE 32 41 17 22 1021.8 1021.8 0.0
30/01:03am 13.5 7.1 5.4 58 3.8 SSE 28 50 15 27 1022.1 1022.1 0.0
30/01:00am 13.6 8.0 5.5 58 3.8 SSE 24 33 13 18 1022.1 1022.1 0.0
30/12:30am 13.3 7.0 5.9 61 3.5 SSE 28 33 15 18 1022.5 1022.5 0.0
30/12:00am 13.4 7.5 6.0 61 3.5 SE 26 37 14 20 1022.8 1022.8 0.0
 
Date/Time
EDT
Temp
°C
App
Temp
°C
Dew
Point
Rel
Hum
%
Delta-T
°C
Wind Press
QNH
hPa
Press
MSL
hPa
Rain
since 9 am
mm
Dir
 
Spd
km/h
Gust
km/h
Spd
kts
Gust
kts
29/11:30pm 13.5 7.3 6.1 61 3.5 SE 28 35 15 19 1022.8 1022.8 0.0
29/11:00pm 13.3 7.3 7.1 66 3.0 SSE 28 39 15 21 1023.1 1023.1 0.0

Other Formats:

Comma delimited format used in spreadsheet applications
http://www.bom.gov.au/fwo/IDT60801/IDT60801.94975.axf

JavaScript Object Notation format (JSON) in row-major order
http://www.bom.gov.au/fwo/IDT60801/IDT60801.94975.json